Ulah, Illinois
Current Conditions -  °F | °C
As of 3:52 AM on Monday 26 Jan 2015 (Local Time) from KMLI Reporting Station
Clear Clear  
Wind Chill: 14°   Ceiling: Unl
Heat Index: 14°   Visibility: 10mi
Dew Point: 10°   Wind: 3mph
Humidity: 84%   Direction: 240°WSW
Pressure: 30.02"   Gusts: NA
Location:  41.3189°N, 90.1549°W
Report Text: KMLI 260952Z AUTO 24003KT 10SM CLR M10/M12 A3002 RMK AO2 SLP175 I1000 T11001122 $
Loading
Personal Weather Stations






























Interactive Weather Map New forecast layout! Learn more

10-Day Weather Forecast

Advertisements
Track Severe Weather on mobile